Terminal Aerodrome Forecast
Issued by NWS

Current Version | Previous Version | Graphics & Text | Print | Product List | Glossary On
Versions: 1 2 3 4 5 6 7 8 9 10 11 12 13 14 15 16 17 18 19 20 21 22
000
FTUS41 KRLX 140815 AAA
TAFCKB
TAF AMD
KCKB 140815Z 1408/1506 00000KT P6SM FEW060
     FM140900 00000KT 5SM BR FEW060
      TEMPO 1409/1410 6SM BR
     FM141000 00000KT 1/4SM FG OVC001
     FM141300 00000KT P6SM FEW050
     FM142000 24005KT P6SM FEW250
     FM150500 17003KT P6SM FEW250=

USA.gov is the U.S. government's official web portal to all federal, state and local government web resources and services.